Time;durP1;ratioP1;P1;durP2;ratioP2;P2;SDS_P1;SDS_P2;PMS_P1;PMS_P2;Temp;Humidity;BMP_temperature;BMP_pressure;BME280_temperature;BME280_humidity;BME280_pressure;Samples;Min_cycle;Max_cycle;Signal;HPM_P1;HPM_P2
2022/10/16 00:01:49;;;;;;;2.13;1.92;;;;;;;14.32;82.77;99925.81;5056522;28;20076;-71
2022/10/16 00:04:17;;;;;;;2.75;2.38;;;;;;;14.39;83.24;99937.72;5056182;28;20044;-73
2022/10/16 00:06:46;;;;;;;3.28;1.63;;;;;;;14.38;83.10;99941.13;5056130;28;20045;-73
2022/10/16 00:09:15;;;;;;;3.30;1.95;;;;;;;14.35;83.17;99956.56;5055984;28;20049;-73
2022/10/16 00:11:45;;;;;;;1.65;0.93;;;;;;;14.34;83.54;99949.75;5055981;28;20041;-72
2022/10/16 00:14:15;;;;;;;1.60;1.48;;;;;;;14.33;83.53;99953.16;5056054;28;20084;-73
2022/10/16 00:16:44;;;;;;;2.38;1.60;;;;;;;14.32;83.51;99948.91;5055983;28;20051;-72
2022/10/16 00:19:13;;;;;;;1.00;0.83;;;;;;;14.31;83.11;99951.50;5056208;28;20045;-71
2022/10/16 00:21:42;;;;;;;5.13;2.05;;;;;;;14.29;83.14;99959.19;5055792;28;20752;-72
2022/10/16 00:24:20;;;;;;;2.65;1.40;;;;;;;14.27;83.61;99942.97;5056303;28;20473;-73
2022/10/16 00:26:52;;;;;;;1.35;0.88;;;;;;;14.27;83.02;99948.09;5056082;28;20499;-73
2022/10/16 00:29:21;;;;;;;2.45;1.88;;;;;;;14.23;83.17;99943.84;5055564;28;20044;-71
2022/10/16 00:31:49;;;;;;;1.52;1.42;;;;;;;14.15;83.79;99932.81;5055954;28;20053;-72
2022/10/16 00:34:18;;;;;;;1.42;1.27;;;;;;;14.17;83.19;99941.34;5055575;28;20052;-71
2022/10/16 00:36:47;;;;;;;2.50;2.30;;;;;;;14.10;83.59;99943.16;5056190;28;20098;-71
2022/10/16 00:39:15;;;;;;;1.88;1.48;;;;;;;14.03;83.84;99943.22;5055022;28;20049;-71
2022/10/16 00:41:44;;;;;;;4.10;2.33;;;;;;;14.01;83.49;99947.53;5055776;28;20041;-73
2022/10/16 00:44:34;;;;;;;1.23;1.13;;;;;;;13.94;83.43;99944.16;5055675;28;20041;-70
2022/10/16 00:47:03;;;;;;;;;;;;;;;13.83;83.65;99961.38;5056153;28;20045;-72
2022/10/16 00:49:32;;;;;;;1.58;1.45;;;;;;;13.77;83.66;99963.97;5055561;28;19928;-70
2022/10/16 00:52:01;;;;;;;2.05;1.85;;;;;;;13.65;83.47;99974.38;5055312;28;20033;-73
2022/10/16 00:54:32;;;;;;;1.60;1.50;;;;;;;13.52;83.45;99971.91;5055178;28;20550;-71
2022/10/16 00:57:03;;;;;;;1.30;1.10;;;;;;;13.40;83.53;99976.28;5055534;28;20067;-71
2022/10/16 00:59:34;;;;;;;1.63;1.48;;;;;;;13.36;83.68;99982.25;5055169;28;20139;-73
2022/10/16 01:02:06;;;;;;;2.85;2.08;;;;;;;13.37;84.22;99976.28;5055118;28;20041;-71
2022/10/16 01:04:39;;;;;;;2.65;2.25;;;;;;;13.32;84.50;99978.03;5055016;28;20045;-71
2022/10/16 01:07:16;;;;;;;3.05;1.48;;;;;;;13.35;84.41;99982.28;5055283;28;20041;-71
2022/10/16 01:09:59;;;;;;;0.80;0.80;;;;;;;13.33;84.77;99987.44;5055308;28;20048;-73
2022/10/16 01:12:40;;;;;;;6.03;1.95;;;;;;;13.31;84.60;99989.16;5054919;28;20487;-72
2022/10/16 01:15:23;;;;;;;1.60;1.08;;;;;;;13.34;85.05;99996.81;5055099;28;20546;-71
2022/10/16 01:18:01;;;;;;;1.52;1.30;;;;;;;13.39;85.30;99997.63;5055143;28;20049;-72
2022/10/16 01:20:37;;;;;;;5.05;1.17;;;;;;;13.43;85.47;99993.34;5054781;28;20069;-71
2022/10/16 01:23:16;;;;;;;3.40;1.85;;;;;;;13.47;85.37;99996.72;5055539;28;20102;-73
2022/10/16 01:26:11;;;;;;;3.03;1.08;;;;;;;13.50;85.08;99987.31;5054659;28;20053;-72
2022/10/16 01:28:47;;;;;;;0.85;0.77;;;;;;;13.53;85.27;99991.56;5055124;28;20041;-72
2022/10/16 01:31:19;;;;;;;1.17;1.05;;;;;;;13.52;85.12;99989.84;5054412;28;20048;-71
2022/10/16 01:33:57;;;;;;;1.92;1.50;;;;;;;13.52;85.33;99984.72;5054786;28;20079;-72
2022/10/16 01:36:32;;;;;;;1.92;1.60;;;;;;;13.48;85.38;99986.47;5053597;28;20068;-71
2022/10/16 01:39:02;;;;;;;2.00;1.40;;;;;;;13.47;85.28;99984.75;5054748;28;20127;-72
2022/10/16 01:41:36;;;;;;;1.52;1.38;;;;;;;13.49;84.99;99983.03;5054640;28;20402;-73
2022/10/16 01:44:09;;;;;;;2.70;2.50;;;;;;;13.48;85.22;99983.06;5054277;28;20106;-71
2022/10/16 01:46:42;;;;;;;1.38;1.27;;;;;;;13.43;84.96;99985.66;5054260;28;20049;-71
2022/10/16 01:49:13;;;;;;;1.80;1.10;;;;;;;13.39;85.00;99984.81;5054421;28;20044;-73
2022/10/16 01:51:45;;;;;;;0.60;0.60;;;;;;;13.31;85.06;99986.59;5053403;28;20053;-70
2022/10/16 01:54:17;;;;;;;1.42;1.33;;;;;;;13.30;84.85;100007.97;5054149;28;20052;-73
2022/10/16 01:56:49;;;;;;;3.58;2.15;;;;;;;13.27;85.08;100000.28;5054082;28;20048;-73
2022/10/16 01:59:25;;;;;;;0.82;0.82;;;;;;;13.22;85.03;100002.03;5054051;28;20044;-72
2022/10/16 02:01:57;;;;;;;0.90;0.80;;;;;;;13.22;85.12;100007.16;5053988;28;20491;-72
2022/10/16 02:04:32;;;;;;;1.17;0.95;;;;;;;13.24;84.98;100014.84;5054012;28;20532;-72
2022/10/16 02:07:01;;;;;;;1.58;1.48;;;;;;;13.24;84.85;100018.28;5053892;28;20487;-71
2022/10/16 02:09:31;;;;;;;2.40;2.13;;;;;;;13.21;85.12;100009.72;5053882;28;20059;-72
2022/10/16 02:12:07;;;;;;;2.50;1.70;;;;;;;13.25;85.39;100012.25;5053830;28;20037;-72
2022/10/16 02:14:39;;;;;;;1.15;1.05;;;;;;;13.25;85.12;100021.66;5054114;28;20122;-71
2022/10/16 02:17:13;;;;;;;1.05;0.85;;;;;;;13.23;85.04;100024.25;5054000;28;20128;-71
2022/10/16 02:19:44;;;;;;;0.90;0.85;;;;;;;13.21;84.95;100018.28;5053714;28;20052;-73
2022/10/16 02:22:19;;;;;;;2.15;1.52;;;;;;;13.20;85.29;100024.25;5053685;28;20049;-71
2022/10/16 02:24:53;;;;;;;2.25;2.05;;;;;;;13.21;85.32;100030.25;5053912;28;20538;-73
2022/10/16 02:27:28;;;;;;;2.53;2.25;;;;;;;13.21;85.07;100025.13;5053567;28;20056;-72
2022/10/16 02:30:07;;;;;;;1.27;1.13;;;;;;;13.19;85.24;100022.56;5053280;28;20137;-71
2022/10/16 02:32:40;;;;;;;1.50;1.20;;;;;;;13.18;85.61;100014.88;5053895;28;20118;-71
2022/10/16 02:35:11;;;;;;;0.70;0.70;;;;;;;13.16;85.26;100017.44;5053540;28;20059;-72
2022/10/16 02:37:41;;;;;;;2.40;2.17;;;;;;;13.17;85.01;100026.81;5053450;28;20049;-71
2022/10/16 02:40:12;;;;;;;2.58;1.05;;;;;;;13.12;85.41;100028.59;5053781;28;20068;-71
2022/10/16 02:42:41;;;;;;;4.47;2.85;;;;;;;13.10;85.38;100026.91;5053393;28;20045;-71
2022/10/16 02:45:12;;;;;;;2.72;1.67;;;;;;;13.10;85.37;100027.72;5053384;28;20037;-71
2022/10/16 02:47:41;;;;;;;2.42;2.22;;;;;;;13.07;85.25;100032.03;5053637;28;20454;-71
2022/10/16 02:50:10;;;;;;;1.42;1.27;;;;;;;13.07;85.52;100030.31;5053331;28;20116;-71
2022/10/16 02:52:38;;;;;;;1.27;0.97;;;;;;;13.06;85.52;100031.16;5053648;28;20065;-70
2022/10/16 02:55:08;;;;;;;1.83;1.33;;;;;;;13.04;85.43;100027.75;5053632;28;20095;-72
2022/10/16 02:57:40;;;;;;;1.23;1.13;;;;;;;13.05;85.19;100038.84;5053571;28;20177;-72
2022/10/16 03:00:13;;;;;;;1.10;1.10;;;;;;;13.04;85.27;100037.97;5053276;28;20052;-71
2022/10/16 03:02:42;;;;;;;1.30;1.20;;;;;;;13.03;85.41;100033.72;5055584;28;20380;-72
2022/10/16 03:05:11;;;;;;;2.53;1.63;;;;;;;13.04;85.21;100027.75;5057293;28;20540;-70
2022/10/16 03:07:40;;;;;;;2.90;1.85;;;;;;;13.02;85.07;100034.59;5057488;28;20037;-71
2022/10/16 03:10:09;;;;;;;1.33;1.23;;;;;;;13.04;85.56;100034.56;5057120;28;20052;-72
2022/10/16 03:12:38;;;;;;;4.13;2.25;;;;;;;13.03;84.86;100031.16;5057404;28;20450;-71
2022/10/16 03:15:07;;;;;;;1.63;0.90;;;;;;;13.03;85.11;100035.44;5057427;28;20037;-71
2022/10/16 03:17:37;;;;;;;;;;;;;;;13.04;84.66;100037.97;5056258;28;20037;-71
2022/10/16 03:20:06;;;;;;;;;;;;;;;13.06;85.15;100040.56;5057482;28;19927;-71
2022/10/16 03:22:34;;;;;;;2.80;1.38;;;;;;;13.05;85.20;100042.22;5057305;28;20404;-72
2022/10/16 03:25:03;;;;;;;3.70;1.33;;;;;;;13.04;85.06;100037.97;5056962;28;20521;-72
2022/10/16 03:27:32;;;;;;;2.75;1.45;;;;;;;13.01;85.04;100038.00;5056950;28;20029;-71
2022/10/16 03:30:01;;;;;;;3.00;1.48;;;;;;;13.04;85.30;100044.81;5056809;28;20057;-71
2022/10/16 03:32:30;;;;;;;;;;;;;;;13.04;85.42;100043.13;5057549;28;20049;-72
2022/10/16 03:35:00;;;;;;;1.08;0.98;;;;;;;13.04;84.94;100037.97;5056764;28;19974;-70
2022/10/16 03:37:29;;;;;;;0.93;0.90;;;;;;;13.02;84.89;100038.84;5057334;28;20049;-70
2022/10/16 03:39:58;;;;;;;1.30;0.98;;;;;;;13.03;85.25;100036.28;5056938;28;20387;-72
2022/10/16 03:42:27;;;;;;;;;;;;;;;13.04;85.47;100040.56;5057035;28;20055;-71
2022/10/16 03:44:56;;;;;;;1.70;1.60;;;;;;;13.06;85.06;100043.97;5056622;28;20271;-73
2022/10/16 03:47:25;;;;;;;2.47;1.10;;;;;;;13.05;85.14;100044.78;5056860;28;20115;-71
2022/10/16 03:49:54;;;;;;;0.88;0.85;;;;;;;13.04;84.85;100043.13;5056651;28;20155;-71
2022/10/16 03:52:24;;;;;;;2.22;1.45;;;;;;;13.07;85.15;100047.41;5056451;28;20041;-73
2022/10/16 03:54:53;;;;;;;1.75;1.38;;;;;;;13.07;85.34;100055.09;5056672;28;20048;-71
2022/10/16 03:57:21;;;;;;;0.40;0.40;;;;;;;13.08;85.49;100059.34;5056690;28;20043;-71
2022/10/16 03:59:50;;;;;;;1.73;1.10;;;;;;;13.10;85.42;100060.22;5056265;28;20091;-71
2022/10/16 04:02:19;;;;;;;1.25;1.15;;;;;;;13.09;85.34;100061.06;5056197;28;20033;-70
2022/10/16 04:04:47;;;;;;;0.85;0.85;;;;;;;13.08;85.54;100064.47;5056218;28;20048;-71
2022/10/16 04:07:16;;;;;;;1.38;1.27;;;;;;;13.09;85.17;100067.03;5056117;28;20517;-71
2022/10/16 04:09:46;;;;;;;1.15;1.05;;;;;;;13.09;85.72;100067.03;5056220;28;20037;-71
2022/10/16 04:12:15;;;;;;;0.85;0.85;;;;;;;13.09;85.26;100067.03;5056121;28;20056;-72
2022/10/16 04:14:43;;;;;;;3.67;1.80;;;;;;;13.11;85.55;100075.56;5055122;28;20041;-72
2022/10/16 04:17:13;;;;;;;2.08;1.80;;;;;;;13.10;85.19;100073.84;5055994;28;20166;-72
2022/10/16 04:19:41;;;;;;;2.15;1.52;;;;;;;13.11;85.46;100074.72;5055836;28;20037;-71
2022/10/16 04:22:10;;;;;;;1.43;1.27;;;;;;;13.06;85.16;100072.16;5055853;28;20056;-72
2022/10/16 04:24:39;;;;;;;4.90;1.73;;;;;;;13.02;85.07;100062.78;5055818;28;20041;-70
2022/10/16 04:27:09;;;;;;;1.20;1.10;;;;;;;12.99;85.49;100067.91;5055794;28;20036;-70
2022/10/16 04:29:38;;;;;;;2.30;1.58;;;;;;;12.97;85.38;100074.75;5055670;28;20052;-71
2022/10/16 04:32:09;;;;;;;2.75;2.08;;;;;;;12.95;85.02;100067.94;5055664;28;20071;-72
2022/10/16 04:34:40;;;;;;;3.33;1.35;;;;;;;12.91;85.39;100061.94;5055964;28;20057;-72
2022/10/16 04:37:09;;;;;;;4.18;1.35;;;;;;;12.89;85.13;100058.53;5055907;28;20085;-70
2022/10/16 04:39:37;;;;;;;1.48;1.23;;;;;;;12.87;85.63;100054.28;5055477;28;20037;-71
2022/10/16 04:42:06;;;;;;;3.45;1.30;;;;;;;12.88;85.24;100051.75;5055479;28;20132;-73
2022/10/16 04:44:37;;;;;;;1.77;1.67;;;;;;;12.88;85.67;100054.28;5055740;28;20041;-73
2022/10/16 04:47:06;;;;;;;1.52;1.15;;;;;;;12.88;85.38;100049.16;5055724;28;20049;-71
2022/10/16 04:49:35;;;;;;;1.08;0.88;;;;;;;12.88;85.34;100051.75;5055669;28;20044;-71
2022/10/16 04:52:04;;;;;;;1.30;0.90;;;;;;;12.84;85.54;100055.16;5055496;28;20064;-71
2022/10/16 04:54:32;;;;;;;2.15;1.95;;;;;;;12.84;85.66;100055.16;5055247;28;20496;-71
2022/10/16 04:57:01;;;;;;;0.75;0.73;;;;;;;12.92;85.68;100063.66;5055202;28;20045;-70
2022/10/16 04:59:30;;;;;;;1.30;1.10;;;;;;;12.67;85.65;100023.63;5055465;28;20047;-72
2022/10/16 05:02:00;;;;;;;1.75;1.30;;;;;;;12.96;85.45;100075.59;5055058;28;20045;-73
2022/10/16 05:04:28;;;;;;;1.70;1.58;;;;;;;12.95;85.53;100079.03;5053836;28;20076;-71
2022/10/16 05:06:57;;;;;;;4.82;1.75;;;;;;;12.94;85.44;100082.44;5055361;28;20037;-73
2022/10/16 05:09:26;;;;;;;2.03;1.58;;;;;;;12.98;85.47;100099.50;5054004;28;20037;-72
2022/10/16 05:11:54;;;;;;;2.65;1.38;;;;;;;12.98;85.26;100103.78;5054974;28;20045;-70
2022/10/16 05:14:23;;;;;;;1.15;1.05;;;;;;;12.97;85.23;100108.06;5054875;28;20043;-71
2022/10/16 05:16:52;;;;;;;4.47;2.15;;;;;;;12.97;85.42;100102.06;5055138;28;20391;-71
2022/10/16 05:19:22;;;;;;;2.80;1.73;;;;;;;12.95;85.16;100099.53;5054776;28;20041;-71
2022/10/16 05:21:55;;;;;;;1.88;1.40;;;;;;;12.87;85.46;100111.50;5055033;28;20162;-71
2022/10/16 05:24:24;;;;;;;5.37;1.70;;;;;;;12.84;85.24;100110.69;5055278;28;20398;-71
2022/10/16 05:26:52;;;;;;;2.38;1.75;;;;;;;12.84;85.28;100108.94;5054932;28;20274;-71
2022/10/16 05:29:21;;;;;;;1.63;1.30;;;;;;;12.79;85.79;100118.34;5054687;28;20033;-72
2022/10/16 05:31:52;;;;;;;1.20;1.10;;;;;;;12.70;85.08;100119.22;5054521;28;20045;-72
2022/10/16 05:34:22;;;;;;;0.90;0.82;;;;;;;12.70;85.15;100128.63;5055050;28;20553;-72
2022/10/16 05:36:52;;;;;;;2.90;2.15;;;;;;;12.68;85.35;100140.59;5054813;28;20513;-71
2022/10/16 05:39:21;;;;;;;5.63;1.73;;;;;;;12.61;85.39;100136.31;5054719;28;20045;-73
2022/10/16 05:41:52;;;;;;;2.23;1.50;;;;;;;12.66;85.30;100126.94;5054574;28;20132;-72
2022/10/16 05:44:20;;;;;;;1.33;1.23;;;;;;;12.73;85.41;100133.75;5053892;28;20053;-73
2022/10/16 05:46:49;;;;;;;1.40;1.23;;;;;;;12.79;85.60;100133.72;5054380;28;20087;-73
2022/10/16 05:49:18;;;;;;;1.23;1.13;;;;;;;12.80;85.62;100140.56;5054460;28;20045;-70
2022/10/16 05:51:48;;;;;;;1.70;1.45;;;;;;;12.87;85.75;100139.69;5052870;28;20163;-73
2022/10/16 05:54:17;;;;;;;5.38;1.85;;;;;;;12.92;85.85;100135.41;5054490;28;20119;-73
2022/10/16 05:56:46;;;;;;;0.80;0.80;;;;;;;12.96;85.60;100131.97;5054031;28;20045;-71
2022/10/16 05:59:15;;;;;;;1.88;1.75;;;;;;;13.02;85.45;100131.97;5054051;28;20052;-72
2022/10/16 06:01:43;;;;;;;3.92;3.22;;;;;;;13.07;85.72;100134.53;5054505;28;20049;-71
2022/10/16 06:04:12;;;;;;;1.60;1.33;;;;;;;13.13;85.67;100142.19;5053866;28;20037;-72
2022/10/16 06:06:40;;;;;;;14.15;1.80;;;;;;;13.19;85.59;100145.59;5054160;28;20048;-71
2022/10/16 06:09:11;;;;;;;1.42;1.33;;;;;;;13.31;85.83;100140.44;5054170;28;20045;-72
2022/10/16 06:11:40;;;;;;;4.75;2.88;;;;;;;13.42;86.03;100148.91;5054159;28;20068;-72
2022/10/16 06:14:09;;;;;;;2.07;1.67;;;;;;;13.51;85.31;100142.03;5053702;28;20052;-73
2022/10/16 06:16:38;;;;;;;1.20;1.10;;;;;;;13.54;85.24;100155.69;5053672;28;20045;-72
2022/10/16 06:19:08;;;;;;;1.90;1.57;;;;;;;13.56;85.63;100155.66;5053927;28;20406;-71
2022/10/16 06:21:36;;;;;;;2.28;1.27;;;;;;;13.56;84.94;100150.53;5053551;28;20340;-73
2022/10/16 06:24:05;;;;;;;1.50;1.02;;;;;;;13.29;85.15;100110.53;5053835;28;20040;-71
2022/10/16 06:26:35;;;;;;;1.23;1.02;;;;;;;13.57;84.95;100157.38;5054240;28;20131;-71
2022/10/16 06:29:04;;;;;;;1.35;1.15;;;;;;;13.63;84.65;100162.50;5053820;28;20107;-72
2022/10/16 06:31:33;;;;;;;1.50;1.40;;;;;;;13.68;84.75;100171.00;5053186;28;20053;-73
2022/10/16 06:34:04;;;;;;;9.15;1.70;;;;;;;13.73;84.05;100179.50;5053884;28;20099;-71
2022/10/16 06:36:33;;;;;;;2.03;1.67;;;;;;;13.77;84.17;100178.66;5052945;28;20098;-73
2022/10/16 06:39:01;;;;;;;1.42;1.33;;;;;;;13.79;83.96;100184.63;5053654;28;20069;-73
2022/10/16 06:41:30;;;;;;;2.33;1.95;;;;;;;13.84;84.10;100186.31;5053384;28;20131;-71
2022/10/16 06:44:08;;;;;;;2.63;1.35;;;;;;;13.89;84.25;100194.00;5052243;28;20041;-72
2022/10/16 06:46:36;;;;;;;1.05;1.00;;;;;;;13.91;83.75;100189.69;5053578;28;20049;-71
2022/10/16 06:49:05;;;;;;;2.13;1.48;;;;;;;13.92;83.58;100186.25;5053319;28;20048;-73
2022/10/16 06:51:36;;;;;;;1.15;0.90;;;;;;;13.88;83.53;100180.28;5053162;28;20037;-73
2022/10/16 06:54:10;;;;;;;1.90;1.77;;;;;;;13.99;83.91;100205.88;5053229;28;20491;-72
2022/10/16 06:56:39;;;;;;;2.90;1.80;;;;;;;14.00;83.93;100216.16;5053571;28;20610;-71
2022/10/16 06:59:09;;;;;;;0.83;0.83;;;;;;;14.04;83.74;100211.84;5053556;28;20068;-72
2022/10/16 07:01:37;;;;;;;3.75;2.50;;;;;;;14.05;83.67;100211.84;5053240;28;20053;-73
2022/10/16 07:04:06;;;;;;;4.80;2.08;;;;;;;14.05;83.54;100209.28;5053339;28;20398;-72
2022/10/16 07:12:55;;;;;;;2.08;1.73;;;;;;;14.22;84.10;100229.72;4381385;23;20452;-66
2022/10/16 07:15:26;;;;;;;1.25;1.15;;;;;;;14.26;83.97;100233.94;4860517;29;20492;-66
2022/10/16 07:17:54;;;;;;;1.27;1.17;;;;;;;14.31;84.04;100229.66;4861279;29;20172;-65
2022/10/16 07:20:23;;;;;;;1.42;1.02;;;;;;;14.31;83.56;100232.25;4860879;29;20038;-66
2022/10/16 07:22:52;;;;;;;6.57;1.43;;;;;;;14.36;83.32;100230.50;4861268;29;20042;-66
2022/10/16 07:25:21;;;;;;;0.75;0.75;;;;;;;14.42;83.66;100227.84;4861110;29;20504;-66
2022/10/16 07:27:49;;;;;;;1.30;1.17;;;;;;;14.48;83.23;100230.41;4860723;29;20045;-66
2022/10/16 07:30:18;;;;;;;4.60;1.92;;;;;;;14.55;82.77;100239.75;4860778;29;20065;-66
2022/10/16 07:32:48;;;;;;;1.17;1.08;;;;;;;14.61;82.85;100231.16;4860790;29;20053;-66
2022/10/16 07:35:16;;;;;;;0.63;0.63;;;;;;;14.67;82.21;100237.09;4861170;29;20074;-66
2022/10/16 07:37:46;;;;;;;1.75;1.65;;;;;;;14.73;82.45;100226.75;4860777;29;20042;-66
2022/10/16 07:40:15;;;;;;;1.48;1.27;;;;;;;14.77;82.05;100228.44;4859840;29;20110;-67
2022/10/16 07:42:44;;;;;;;11.73;1.50;;;;;;;14.84;81.95;100241.22;4860820;29;20444;-67
2022/10/16 07:45:13;;;;;;;1.50;1.40;;;;;;;14.89;81.56;100252.31;4860620;29;20534;-67
2022/10/16 07:47:41;;;;;;;3.58;1.70;;;;;;;14.94;80.98;100248.00;4860993;29;20042;-67
2022/10/16 07:50:11;;;;;;;2.72;2.03;;;;;;;15.00;81.02;100245.34;4862956;29;20057;-66
2022/10/16 07:52:40;;;;;;;1.95;1.65;;;;;;;15.06;80.58;100245.31;4864346;29;20033;-67
2022/10/16 07:55:09;;;;;;;1.25;1.15;;;;;;;15.13;80.24;100244.38;4864268;29;20056;-67
2022/10/16 07:57:38;;;;;;;2.35;1.25;;;;;;;15.20;80.30;100251.16;4863862;29;20542;-66
2022/10/16 08:00:13;;;;;;;0.77;0.77;;;;;;;15.27;79.79;100251.09;4863927;29;20046;-66
2022/10/16 08:02:42;;;;;;;1.88;1.27;;;;;;;15.36;79.66;100247.53;4863775;29;20045;-66
2022/10/16 08:05:12;;;;;;;1.35;1.15;;;;;;;15.43;79.32;100252.63;4863849;29;20045;-66
2022/10/16 08:07:41;;;;;;;2.03;1.55;;;;;;;15.49;79.32;100246.59;4862812;29;20053;-67
2022/10/16 08:10:17;;;;;;;2.05;1.85;;;;;;;15.60;79.39;100252.44;4863809;29;20037;-67
2022/10/16 08:12:46;;;;;;;2.10;1.80;;;;;;;15.70;78.96;100259.19;4863383;29;20105;-67
2022/10/16 08:15:15;;;;;;;2.45;1.27;;;;;;;15.75;78.74;100254.84;4863884;29;20407;-66
2022/10/16 08:17:43;;;;;;;1.57;1.47;;;;;;;15.75;78.09;100253.97;4863856;29;20495;-66
2022/10/16 08:20:13;;;;;;;4.03;2.50;;;;;;;15.78;77.25;100265.09;4863632;29;20515;-66
2022/10/16 08:22:42;;;;;;;2.33;1.85;;;;;;;15.82;77.03;100266.75;4863670;29;20046;-66
2022/10/16 08:25:10;;;;;;;1.33;1.23;;;;;;;15.82;76.44;100253.91;4863264;29;20508;-66
2022/10/16 08:27:39;;;;;;;1.65;1.20;;;;;;;15.82;76.01;100259.03;4863543;29;20057;-66
2022/10/16 08:30:09;;;;;;;0.90;0.90;;;;;;;15.84;75.42;100272.75;4863595;29;20385;-67
2022/10/16 08:32:38;;;;;;;1.90;1.63;;;;;;;15.88;75.43;100271.81;4863305;29;20523;-66
2022/10/16 08:35:08;;;;;;;2.15;1.70;;;;;;;15.95;75.04;100282.91;4863685;29;20045;-67
2022/10/16 08:37:39;;;;;;;2.15;1.95;;;;;;;16.07;75.40;100278.47;4863206;29;20057;-67
2022/10/16 08:40:18;;;;;;;4.03;2.22;;;;;;;16.21;75.57;100279.97;4863143;29;20289;-66
2022/10/16 08:43:09;;;;;;;2.08;1.88;;;;;;;16.34;74.94;100286.69;4863461;29;20049;-66
2022/10/16 08:45:54;;;;;;;1.95;1.75;;;;;;;16.43;74.01;100296.84;4863154;29;20061;-66
2022/10/16 08:48:30;;;;;;;1.50;1.17;;;;;;;16.48;73.04;100295.06;4863448;29;20519;-67
2022/10/16 08:50:59;;;;;;;2.15;1.17;;;;;;;16.49;72.32;100296.75;4863276;29;20531;-66
2022/10/16 08:53:35;;;;;;;2.15;1.50;;;;;;;16.50;72.52;100295.88;4863172;29;20488;-66
2022/10/16 08:56:03;;;;;;;3.47;2.33;;;;;;;16.53;72.31;100301.84;4863254;29;20053;-67
2022/10/16 08:58:32;;;;;;;2.63;1.67;;;;;;;16.54;71.50;100292.41;4862888;29;20057;-67
2022/10/16 09:01:03;;;;;;;1.07;0.97;;;;;;;16.54;71.25;100284.69;4862531;29;20050;-66
2022/10/16 09:03:49;;;;;;;2.45;1.98;;;;;;;16.53;71.07;100288.97;4862825;29;20081;-67
2022/10/16 09:06:40;;;;;;;2.42;1.92;;;;;;;16.58;71.15;100283.78;4861725;29;20045;-67
2022/10/16 09:09:33;;;;;;;0.93;0.80;;;;;;;16.63;71.81;100298.28;4862750;29;20050;-66
2022/10/16 09:12:08;;;;;;;2.03;1.80;;;;;;;16.66;72.05;100294.78;4862611;29;20054;-66
2022/10/16 09:14:58;;;;;;;1.15;1.05;;;;;;;16.70;71.65;100291.28;4862724;29;20510;-67
2022/10/16 09:17:37;;;;;;;3.92;2.38;;;;;;;16.72;71.21;100285.22;4861715;29;20173;-66
2022/10/16 09:20:26;;;;;;;2.30;1.23;;;;;;;16.82;71.01;100298.81;4862906;29;20050;-67
2022/10/16 09:23:15;;;;;;;2.30;1.67;;;;;;;16.89;70.69;100302.19;4862546;29;20281;-66
2022/10/16 09:25:48;;;;;;;2.58;1.52;;;;;;;16.95;70.47;100286.59;4862429;29;20105;-66
2022/10/16 09:28:19;;;;;;;4.93;2.13;;;;;;;17.02;70.40;100283.88;4862793;29;20140;-66
2022/10/16 09:30:49;;;;;;;2.85;1.92;;;;;;;17.07;69.62;100286.38;4862327;29;20064;-66
2022/10/16 09:33:19;;;;;;;;;;;;;;;17.10;69.42;100287.19;4862921;29;20115;-66
2022/10/16 09:35:50;;;;;;;;;;;;;;;17.13;69.30;100292.28;4862887;29;19946;-66
2022/10/16 09:38:28;;;;;;;2.28;1.35;;;;;;;17.34;69.23;100296.22;4862719;29;20023;-66
2022/10/16 09:41:01;;;;;;;3.45;1.40;;;;;;;17.67;69.08;100282.69;4862270;29;20082;-66
2022/10/16 09:43:39;;;;;;;3.35;1.10;;;;;;;17.99;67.88;100293.25;4861901;29;20496;-67
2022/10/16 09:46:22;;;;;;;1.13;1.02;;;;;;;18.17;66.58;100285.94;4862368;29;20057;-67
2022/10/16 09:48:53;;;;;;;1.35;0.93;;;;;;;18.33;65.67;100293.31;4861899;29;20049;-67
2022/10/16 09:51:25;;;;;;;1.30;1.20;;;;;;;18.41;64.56;100291.44;4862116;29;20102;-66
2022/10/16 09:53:58;;;;;;;1.40;1.30;;;;;;;18.54;63.88;100298.06;4859587;29;20056;-67
2022/10/16 09:56:29;;;;;;;1.38;1.10;;;;;;;18.72;63.04;100302.78;4879567;29;20057;-66
2022/10/16 09:59:00;;;;;;;2.88;1.33;;;;;;;18.89;62.72;100306.69;4880374;29;20085;-66
2022/10/16 10:01:37;;;;;;;2.25;1.65;;;;;;;18.85;62.80;100308.53;4880481;29;20140;-67
2022/10/16 10:04:07;;;;;;;2.25;1.63;;;;;;;18.82;62.75;100312.91;4880235;29;20499;-67
2022/10/16 10:06:37;;;;;;;;;;;;;;;18.81;62.53;100317.25;4879446;29;20049;-67
2022/10/16 10:09:16;;;;;;;2.33;1.80;;;;;;;18.71;62.30;100308.00;4880626;29;20374;-66
2022/10/16 10:11:50;;;;;;;2.03;1.75;;;;;;;18.61;62.24;100309.09;4878989;29;20045;-68
2022/10/16 10:14:28;;;;;;;1.83;0.98;;;;;;;18.55;62.19;100304.06;4843090;29;20076;-67
2022/10/16 10:17:12;;;;;;;3.33;1.63;;;;;;;18.54;62.44;100307.56;4841794;29;20045;-67
2022/10/16 10:19:45;;;;;;;1.10;1.00;;;;;;;18.55;62.88;100304.91;4843134;29;20433;-67
2022/10/16 10:22:36;;;;;;;0.70;0.70;;;;;;;18.59;63.10;100301.41;4842892;29;20057;-67
2022/10/16 10:25:20;;;;;;;1.20;1.05;;;;;;;18.65;63.03;100313.31;4842659;29;20543;-67
2022/10/16 10:28:04;;;;;;;1.67;1.58;;;;;;;18.72;63.85;100315.72;4842463;29;20050;-67
2022/10/16 10:30:41;;;;;;;2.33;1.40;;;;;;;18.73;63.26;100316.56;4843067;29;20088;-68
2022/10/16 10:33:22;;;;;;;1.55;1.35;;;;;;;18.70;62.66;100312.31;4841899;29;20524;-67
2022/10/16 10:35:58;;;;;;;0.68;0.68;;;;;;;18.70;62.32;100303.72;4842804;29;20061;-67
2022/10/16 10:38:37;;;;;;;0.68;0.68;;;;;;;18.73;62.49;100304.50;4842884;29;20058;-67
2022/10/16 10:41:24;;;;;;;1.15;1.02;;;;;;;18.77;62.47;100310.44;4843120;29;20505;-68
2022/10/16 10:44:07;;;;;;;3.83;2.40;;;;;;;18.73;62.50;100299.34;4842734;29;20089;-67
2022/10/16 10:46:39;;;;;;;1.42;1.30;;;;;;;18.82;61.67;100312.91;4842976;29;20488;-67
2022/10/16 10:49:36;;;;;;;1.67;1.55;;;;;;;18.80;61.18;100309.50;4843012;29;20050;-68
2022/10/16 10:52:20;;;;;;;1.50;1.40;;;;;;;18.79;61.92;100306.06;4842261;29;20099;-67
2022/10/16 10:54:56;;;;;;;1.80;1.27;;;;;;;18.79;61.77;100307.84;4842784;29;20042;-68
2022/10/16 10:57:34;;;;;;;1.05;0.93;;;;;;;18.79;61.88;100308.66;4842920;29;20092;-68
2022/10/16 11:00:22;;;;;;;1.25;1.13;;;;;;;18.81;61.95;100316.41;4842949;29;20127;-68
2022/10/16 11:03:00;;;;;;;6.45;2.20;;;;;;;18.80;61.20;100318.13;4842867;29;20149;-67
2022/10/16 11:05:43;;;;;;;1.92;1.60;;;;;;;18.81;61.38;100317.25;4842441;29;20050;-67
2022/10/16 11:08:18;;;;;;;1.65;1.08;;;;;;;18.81;61.08;100321.56;4842634;29;20058;-66
2022/10/16 11:10:53;;;;;;;2.55;1.98;;;;;;;18.83;60.97;100309.44;4842831;29;20054;-67
2022/10/16 11:13:35;;;;;;;5.25;1.38;;;;;;;18.85;60.66;100312.84;4842434;29;20061;-66
2022/10/16 11:16:16;;;;;;;2.17;1.35;;;;;;;18.92;60.96;100298.88;4842862;29;20095;-66
2022/10/16 11:18:56;;;;;;;3.30;2.35;;;;;;;19.01;60.96;100314.16;4842515;29;20046;-67
2022/10/16 11:21:29;;;;;;;4.05;2.40;;;;;;;19.05;60.89;100316.63;4842168;29;20501;-67
2022/10/16 11:24:05;;;;;;;2.58;1.50;;;;;;;19.12;60.71;100312.16;4844591;29;20500;-66
2022/10/16 11:26:39;;;;;;;1.67;1.45;;;;;;;19.17;60.16;100316.31;4846315;29;20152;-66
2022/10/16 11:29:17;;;;;;;2.45;2.25;;;;;;;19.20;59.63;100316.25;4846406;29;20046;-66
2022/10/16 11:31:51;;;;;;;1.05;0.95;;;;;;;19.17;59.39;100311.16;4845837;29;20081;-66
2022/10/16 11:34:30;;;;;;;2.03;1.45;;;;;;;19.12;59.23;100304.41;4846316;29;20441;-66
2022/10/16 11:37:11;;;;;;;2.17;1.98;;;;;;;19.11;59.10;100310.47;4845781;29;20054;-66
2022/10/16 11:39:42;;;;;;;4.45;2.15;;;;;;;19.15;60.03;100312.94;4846058;29;20075;-66
2022/10/16 11:42:14;;;;;;;2.42;1.95;;;;;;;19.14;59.69;100320.75;4846133;29;20054;-66
2022/10/16 11:45:02;;;;;;;2.78;1.30;;;;;;;19.13;60.08;100313.84;4845975;29;20053;-66
2022/10/16 11:47:36;;;;;;;1.83;1.73;;;;;;;19.14;59.68;100315.56;4845852;29;20050;-66
2022/10/16 11:50:32;;;;;;;1.10;1.05;;;;;;;19.21;59.16;100306.75;4846121;29;20414;-66
2022/10/16 11:53:10;;;;;;;1.35;1.25;;;;;;;19.39;58.66;100306.28;4845850;29;20124;-67
2022/10/16 11:55:42;;;;;;;1.77;1.67;;;;;;;19.55;58.32;100281.69;4845632;29;20102;-67
2022/10/16 11:58:23;;;;;;;2.78;1.88;;;;;;;19.86;57.67;100292.91;4845468;29;20068;-66
2022/10/16 12:01:01;;;;;;;2.33;1.40;;;;;;;20.18;56.69;100301.47;4844666;29;20058;-67